Briefing drone pour Coulounieix-chamiers

Rechercher une autre localisation

Conditions de vol :


Nous sommes le : Lundi 20 septembre 2021
Il est 07:47 UTC (09:47 LT)

Lever de soleil : 05:15 UTC (07:15 LT)
Coucher de soleil : 18:25 UTC (20:25 LT)

Météo

L'essentiel des conditions de vol

VIGILANCE MÉTÉO FRANCE - Dordogne (24)
Pas de vigilances particulieres
CARTES DES FRONTS
METAR de LFBX
LFBX 200730Z AUTO 25004KT 210V280 9999 OVC009/// ///CB 15/14 Q1020

Date d'émission: 20/09/2021
Heure d'émission: 07:30 UTC
Vent: 250° (variable du 210° au 280°) pour 4 KT (7 km/h)
Visibilité horizontale: > 10 km
Plafond :
- Couvert à 900ft (274m)
Température: 15 °C
Point de rosée: 14 °C
Humidité: 94%
Pression (QNH): 1020 hPa
Prévision 24h pour Perigueux (1 km)
Vent : 13° pour 1 KT (4 km/h)
Temperature Maxi: 11 °C
Temperature Min: 11 °C
Humidité : 94%
Condition : Partiellement nuageux



Warning: count(): Parameter must be an array or an object that implements Countable in /homepages/6/d509196549/htdocs/droneoxygene/briefing.php on line 743
WEBCAM POUR COULOUNIEIX-CHAMIERS

Réglementation

Voler en sécurité

CARTES AERONAUTIQUE 1/500.000
CARTES VAC (LFBX)
SUP AIP




Chargement des AIP...
NOTAM (COULOUNIEIX-CHAMIERS + Terrain à proximité / FIR )




Chargement des NOTAMS...
CONTACT PREFECTURE 24


Avertissement : Les données mises à disposition sont indicatives. Oxygène Drone ne pourra être tenu responsable de dégâts causés aux biens et aux personnes.